createdAt,value
2023-03-11T00:00:55.289Z,77.50
2023-03-11T00:03:23.386Z,77.50
2023-03-11T00:05:52.741Z,77.50
2023-03-11T00:08:23.870Z,77.90
2023-03-11T00:11:00.467Z,77.80
2023-03-11T00:13:29.915Z,76.10
2023-03-11T00:15:57.910Z,77.90
2023-03-11T00:18:28.036Z,78.20
2023-03-11T00:20:57.048Z,77.60
2023-03-11T00:23:25.910Z,77.60
2023-03-11T00:25:53.390Z,77.10
2023-03-11T00:28:22.231Z,77.00
2023-03-11T00:30:49.081Z,76.80
2023-03-11T00:33:17.191Z,76.80
2023-03-11T00:35:44.611Z,76.50
2023-03-11T00:38:16.546Z,76.80
2023-03-11T00:40:46.336Z,76.40
2023-03-11T00:43:13.778Z,77.40
2023-03-11T00:45:40.976Z,77.10
2023-03-11T00:48:08.645Z,77.00
2023-03-11T00:50:37.637Z,77.60
2023-03-11T00:53:05.396Z,77.10
2023-03-11T00:55:35.676Z,77.30
2023-03-11T00:58:05.744Z,77.10
2023-03-11T01:00:34.232Z,77.10
2023-03-11T01:03:01.728Z,77.40
2023-03-11T01:05:32.544Z,77.50
2023-03-11T01:07:59.823Z,77.10
2023-03-11T01:10:27.877Z,75.00
2023-03-11T01:12:54.823Z,77.70
2023-03-11T01:15:33.525Z,78.00
2023-03-11T01:18:01.408Z,76.70
2023-03-11T01:20:29.220Z,77.90
2023-03-11T01:22:56.495Z,78.30
2023-03-11T01:25:24.500Z,78.30
2023-03-11T01:27:51.910Z,78.10
2023-03-11T01:30:23.962Z,78.10
2023-03-11T01:32:53.254Z,77.70
2023-03-11T01:35:23.399Z,77.90
2023-03-11T01:37:50.878Z,77.70
2023-03-11T01:40:22.565Z,77.90
2023-03-11T01:42:49.405Z,77.40
2023-03-11T01:46:02.390Z,78.00
2023-03-11T01:48:29.671Z,77.20
2023-03-11T01:50:57.318Z,78.20
2023-03-11T01:53:25.315Z,78.20
2023-03-11T01:55:52.793Z,78.20
2023-03-11T01:58:27.120Z,78.30
2023-03-11T02:00:56.557Z,76.80
2023-03-11T02:03:32.198Z,77.90
2023-03-11T02:06:05.607Z,77.70
2023-03-11T02:08:36.845Z,77.50
2023-03-11T02:11:08.997Z,78.00
2023-03-11T02:13:37.816Z,77.60
2023-03-11T02:16:05.507Z,77.90
2023-03-11T02:18:32.862Z,77.90
2023-03-11T02:21:39.546Z,77.60
2023-03-11T02:24:28.119Z,77.60
2023-03-11T02:27:01.335Z,73.90
2023-03-11T02:29:30.082Z,76.90
2023-03-11T02:32:00.537Z,77.40
2023-03-11T02:34:34.730Z,78.00
2023-03-11T02:37:05.266Z,77.00
2023-03-11T02:39:39.089Z,77.80
2023-03-11T02:42:24.896Z,77.10
2023-03-11T02:45:08.109Z,75.80
2023-03-11T02:47:38.046Z,76.20
2023-03-11T02:50:07.587Z,78.00
2023-03-11T02:52:36.132Z,78.10
2023-03-11T02:55:04.028Z,78.10
2023-03-11T02:57:31.030Z,78.20
2023-03-11T02:59:57.949Z,78.30
2023-03-11T03:02:24.737Z,78.20
2023-03-11T03:04:51.562Z,78.20
2023-03-11T03:07:18.335Z,78.30
2023-03-11T03:09:45.172Z,78.20
2023-03-11T03:12:12.213Z,78.00
2023-03-11T03:14:39.096Z,78.00
2023-03-11T03:17:06.088Z,78.10
2023-03-11T03:19:32.960Z,78.20
2023-03-11T03:21:59.744Z,78.20
2023-03-11T03:24:26.648Z,78.10
2023-03-11T03:26:53.490Z,77.90
2023-03-11T03:29:20.420Z,78.10
2023-03-11T03:31:47.490Z,78.00
2023-03-11T03:34:14.348Z,77.80
2023-03-11T03:36:41.263Z,78.10
2023-03-11T03:39:08.169Z,78.00
2023-03-11T03:41:35.136Z,77.80
2023-03-11T03:44:02.395Z,77.90
2023-03-11T03:46:29.252Z,77.90
2023-03-11T03:48:56.140Z,78.00
2023-03-11T03:51:23.125Z,77.90
2023-03-11T03:53:49.959Z,78.10
2023-03-11T03:56:18.478Z,78.10
2023-03-11T03:58:45.372Z,78.10
2023-03-11T04:01:13.438Z,78.20
2023-03-11T04:03:40.534Z,78.10
2023-03-11T04:06:16.405Z,78.20
2023-03-11T04:08:43.844Z,78.00
2023-03-11T04:11:10.716Z,77.90
2023-03-11T04:13:37.646Z,78.10
2023-03-11T04:16:07.021Z,78.20
2023-03-11T04:18:35.549Z,78.10
2023-03-11T04:21:06.870Z,77.90
2023-03-11T04:23:34.403Z,77.40
2023-03-11T04:26:01.980Z,78.20
2023-03-11T04:28:28.838Z,78.10
2023-03-11T04:30:56.600Z,78.20
2023-03-11T04:33:23.592Z,78.20
2023-03-11T04:35:50.515Z,78.20
2023-03-11T04:38:17.618Z,78.20
2023-03-11T04:40:44.563Z,78.20
2023-03-11T04:43:11.491Z,78.10
2023-03-11T04:45:40.119Z,78.20
2023-03-11T04:48:07.382Z,78.20
2023-03-11T04:50:34.680Z,78.00
2023-03-11T04:53:01.738Z,78.00
2023-03-11T04:55:28.580Z,78.10
2023-03-11T04:57:55.462Z,78.30
2023-03-11T05:00:24.923Z,78.40
2023-03-11T05:02:52.702Z,78.50
2023-03-11T05:05:28.132Z,78.80
2023-03-11T05:07:55.022Z,78.80
2023-03-11T05:10:24.769Z,79.10
2023-03-11T05:12:52.475Z,79.30
2023-03-11T05:15:20.389Z,79.10
2023-03-11T05:17:47.696Z,79.30
2023-03-11T05:20:15.892Z,79.30
2023-03-11T05:22:43.092Z,79.30
2023-03-11T05:25:10.271Z,79.30
2023-03-11T05:27:37.108Z,79.20
2023-03-11T05:30:04.717Z,79.40
2023-03-11T05:32:31.669Z,79.30
2023-03-11T05:34:58.534Z,79.30
2023-03-11T05:37:25.422Z,79.30
2023-03-11T05:39:53.072Z,79.40
2023-03-11T05:42:21.454Z,79.20
2023-03-11T05:44:48.889Z,79.20
2023-03-11T05:47:18.202Z,79.10
2023-03-11T05:49:48.254Z,79.00
2023-03-11T05:52:15.589Z,79.10
2023-03-11T05:54:42.648Z,78.80
2023-03-11T05:57:09.581Z,79.00
2023-03-11T05:59:37.696Z,79.00
2023-03-11T06:02:04.690Z,78.80
2023-03-11T06:04:31.796Z,78.80
2023-03-11T06:06:58.770Z,78.90
2023-03-11T06:09:25.933Z,79.00
2023-03-11T06:11:53.227Z,78.90
2023-03-11T06:14:20.294Z,78.80
2023-03-11T06:16:47.358Z,79.00
2023-03-11T06:19:14.344Z,79.10
2023-03-11T06:21:41.245Z,79.00
2023-03-11T06:24:08.295Z,78.60
2023-03-11T06:26:35.234Z,78.40
2023-03-11T06:29:02.088Z,78.40
2023-03-11T06:31:29.740Z,78.40
2023-03-11T06:33:57.197Z,78.20
2023-03-11T06:36:25.536Z,78.00
2023-03-11T06:38:53.984Z,77.70
2023-03-11T06:41:21.075Z,77.60
2023-03-11T06:43:47.949Z,77.70
2023-03-11T06:46:21.689Z,77.80
2023-03-11T06:48:52.243Z,76.60
2023-03-11T06:51:20.997Z,77.70
2023-03-11T06:53:53.006Z,77.60
2023-03-11T06:56:22.738Z,76.80
2023-03-11T06:58:50.252Z,77.90
2023-03-11T07:01:21.340Z,78.30
2023-03-11T07:03:50.040Z,78.10
2023-03-11T07:06:24.235Z,78.50
2023-03-11T07:08:53.710Z,78.10
2023-03-11T07:11:27.719Z,77.70
2023-03-11T07:13:55.513Z,77.20
2023-03-11T07:16:29.483Z,77.00
2023-03-11T07:19:00.937Z,76.60
2023-03-11T07:21:30.265Z,76.70
2023-03-11T07:24:00.298Z,77.20
2023-03-11T07:26:29.543Z,77.30
2023-03-11T07:28:57.828Z,77.60
2023-03-11T07:31:31.748Z,77.70
2023-03-11T07:34:06.136Z,76.30
2023-03-11T07:36:33.125Z,76.20
2023-03-11T07:39:04.672Z,77.50
2023-03-11T07:41:36.342Z,76.90
2023-03-11T07:44:04.750Z,75.70
2023-03-11T07:46:32.980Z,77.60
2023-03-11T07:49:02.496Z,78.70
2023-03-11T07:51:33.104Z,78.70
2023-03-11T07:54:01.434Z,77.60
2023-03-11T07:56:32.406Z,76.50
2023-03-11T07:59:01.956Z,75.40
2023-03-11T08:01:36.208Z,73.10
2023-03-11T08:04:06.497Z,70.70
2023-03-11T08:06:36.698Z,69.50
2023-03-11T08:09:08.774Z,69.20
2023-03-11T08:11:37.565Z,67.00
2023-03-11T08:14:05.557Z,65.90
2023-03-11T08:16:33.025Z,65.50
2023-03-11T08:18:59.872Z,64.50
2023-03-11T08:21:29.918Z,64.80
2023-03-11T08:24:02.390Z,64.30
2023-03-11T08:26:30.479Z,59.80
2023-03-11T08:28:58.948Z,63.30
2023-03-11T08:31:30.304Z,64.00
2023-03-11T08:34:02.508Z,63.10
2023-03-11T08:36:30.307Z,63.70
2023-03-11T08:38:57.910Z,64.40
2023-03-11T08:41:25.730Z,62.80
2023-03-11T08:43:52.879Z,62.50
2023-03-11T08:46:36.737Z,63.20
2023-03-11T08:49:05.528Z,58.40
2023-03-11T08:51:34.836Z,64.10
2023-03-11T08:54:03.042Z,61.40
2023-03-11T08:56:30.279Z,61.50
2023-03-11T08:58:57.637Z,61.80
2023-03-11T09:01:24.494Z,62.10
2023-03-11T09:03:51.880Z,61.50
2023-03-11T09:06:18.988Z,61.60
2023-03-11T09:08:47.608Z,63.60
2023-03-11T09:11:16.392Z,62.80
2023-03-11T09:13:44.062Z,63.60
2023-03-11T09:16:21.718Z,66.70
2023-03-11T09:18:49.036Z,65.80
2023-03-11T09:21:16.420Z,66.20
2023-03-11T09:23:44.477Z,63.20
2023-03-11T09:26:12.652Z,63.10
2023-03-11T09:28:40.375Z,64.70
2023-03-11T09:31:07.937Z,64.20
2023-03-11T09:33:41.250Z,63.60
2023-03-11T09:36:13.107Z,60.00
2023-03-11T09:38:40.036Z,62.30
2023-03-11T09:41:42.394Z,62.50
2023-03-11T09:44:46.312Z,61.00
2023-03-11T09:47:55.979Z,65.00
2023-03-11T09:50:34.215Z,60.10
2023-03-11T09:53:18.086Z,60.70
2023-03-11T09:55:48.846Z,61.90
2023-03-11T09:58:30.376Z,61.40
2023-03-11T10:00:57.440Z,57.80
2023-03-11T10:03:36.790Z,62.20
2023-03-11T10:06:23.121Z,58.10
2023-03-11T10:09:13.624Z,57.00
2023-03-11T10:11:52.392Z,58.20
2023-03-11T10:14:34.684Z,59.30
2023-03-11T10:17:23.761Z,54.30
2023-03-11T10:20:18.659Z,53.30
2023-03-11T10:23:00.320Z,57.80
2023-03-11T10:25:49.803Z,58.40
2023-03-11T10:28:20.746Z,61.10
2023-03-11T10:31:23.805Z,62.60
2023-03-11T10:34:01.975Z,62.20
2023-03-11T10:36:58.240Z,60.60
2023-03-11T10:39:27.176Z,56.00
2023-03-11T10:42:05.342Z,64.40
2023-03-11T10:44:41.386Z,60.60
2023-03-11T10:47:19.236Z,63.50
2023-03-11T10:49:46.315Z,60.90
2023-03-11T10:52:13.754Z,64.50
2023-03-11T10:54:47.971Z,64.00
2023-03-11T10:57:38.869Z,61.50
2023-03-11T11:00:17.065Z,57.10
2023-03-11T11:02:58.100Z,60.30
2023-03-11T11:05:34.556Z,56.40
2023-03-11T11:08:16.989Z,58.10
2023-03-11T11:11:02.289Z,59.30
2023-03-11T11:13:34.504Z,55.60
2023-03-11T11:16:34.031Z,60.10
2023-03-11T11:19:13.856Z,55.70
2023-03-11T11:21:49.402Z,56.60
2023-03-11T11:24:30.168Z,61.30
2023-03-11T11:27:23.732Z,59.40
2023-03-11T11:30:15.882Z,57.20
2023-03-11T11:32:43.509Z,58.00
2023-03-11T11:35:17.731Z,66.70
2023-03-11T11:37:53.504Z,65.20
2023-03-11T11:40:32.381Z,65.90
2023-03-11T11:43:12.269Z,63.80
2023-03-11T11:45:49.152Z,65.00
2023-03-11T11:48:32.674Z,65.30
2023-03-11T11:51:08.864Z,64.60
2023-03-11T11:53:58.221Z,67.40
2023-03-11T11:56:26.295Z,65.10
2023-03-11T11:58:55.338Z,67.60
2023-03-11T12:01:28.424Z,67.60
2023-03-11T12:04:25.311Z,67.50
2023-03-11T12:07:17.385Z,64.20
2023-03-11T12:10:22.682Z,62.90
2023-03-11T12:13:29.064Z,68.40
2023-03-11T12:16:24.358Z,63.40
2023-03-11T12:19:10.483Z,65.90
2023-03-11T12:22:29.331Z,66.00
2023-03-11T12:25:22.417Z,63.00
2023-03-11T12:28:37.043Z,66.70
2023-03-11T12:31:09.949Z,65.40
2023-03-11T12:33:54.957Z,69.00
2023-03-11T12:36:35.111Z,63.50
2023-03-11T12:39:06.518Z,64.80
2023-03-11T12:41:42.144Z,69.50
2023-03-11T12:44:27.188Z,66.70
2023-03-11T12:47:01.496Z,66.10
2023-03-11T12:49:38.691Z,67.70
2023-03-11T12:52:11.784Z,68.10
2023-03-11T12:54:44.797Z,67.00
2023-03-11T12:57:17.884Z,69.60
2023-03-11T13:00:23.048Z,67.00
2023-03-11T13:02:55.914Z,67.20
2023-03-11T13:05:50.837Z,70.70
2023-03-11T13:08:25.815Z,63.60
2023-03-11T13:10:55.873Z,69.70
2023-03-11T13:13:25.382Z,70.60
2023-03-11T13:15:53.176Z,69.50
2023-03-11T13:18:30.644Z,70.60
2023-03-11T13:20:59.652Z,66.80
2023-03-11T13:23:42.443Z,70.70
2023-03-11T13:26:31.470Z,64.60
2023-03-11T13:29:40.846Z,65.10
2023-03-11T13:32:53.761Z,64.10
2023-03-11T13:35:44.710Z,64.20
2023-03-11T13:38:11.392Z,68.10
2023-03-11T13:40:46.841Z,64.90
2023-03-11T13:43:25.852Z,66.00
2023-03-11T13:46:00.452Z,64.20
2023-03-11T13:48:36.103Z,68.50
2023-03-11T13:51:21.824Z,66.80
2023-03-11T13:54:04.424Z,63.40
2023-03-11T13:56:44.811Z,65.70
2023-03-11T13:59:34.922Z,64.90
2023-03-11T14:02:19.121Z,62.60
2023-03-11T14:04:53.761Z,63.90
2023-03-11T14:07:27.744Z,66.80
2023-03-11T14:10:26.014Z,67.10
2023-03-11T14:13:16.364Z,61.30
2023-03-11T14:16:02.075Z,63.10
2023-03-11T14:18:33.194Z,65.90
2023-03-11T14:21:01.208Z,67.80
2023-03-11T14:23:35.353Z,69.60
2023-03-11T14:26:13.230Z,69.20
2023-03-11T14:28:48.821Z,69.90
2023-03-11T14:31:44.063Z,71.10
2023-03-11T14:34:10.943Z,72.10
2023-03-11T14:36:51.046Z,76.90
2023-03-11T14:39:28.335Z,75.70
2023-03-11T14:41:57.452Z,71.20
2023-03-11T14:44:28.177Z,74.80
2023-03-11T14:47:23.152Z,73.40
2023-03-11T14:49:53.558Z,65.90
2023-03-11T14:52:30.866Z,69.20
2023-03-11T14:54:58.965Z,66.20
2023-03-11T14:57:37.937Z,69.80
2023-03-11T15:00:12.140Z,63.90
2023-03-11T15:03:20.221Z,74.20
2023-03-11T15:06:04.091Z,70.10
2023-03-11T15:08:48.796Z,67.10
2023-03-11T15:11:16.337Z,65.40
2023-03-11T15:13:47.400Z,70.60
2023-03-11T15:16:37.200Z,68.50
2023-03-11T15:19:29.833Z,60.80
2023-03-11T15:22:06.269Z,63.20
2023-03-11T15:24:34.041Z,73.10
2023-03-11T15:27:07.052Z,74.50
2023-03-11T15:29:36.467Z,71.90
2023-03-11T15:32:25.469Z,68.90
2023-03-11T15:35:27.956Z,59.20
2023-03-11T15:38:21.862Z,60.90
2023-03-11T15:41:01.136Z,58.40
2023-03-11T15:43:46.603Z,60.90
2023-03-11T15:46:13.666Z,58.30
2023-03-11T15:48:42.715Z,64.20
2023-03-11T15:51:20.473Z,61.70
2023-03-11T15:53:48.366Z,53.30
2023-03-11T15:56:24.114Z,57.80
2023-03-11T15:58:51.064Z,52.60
2023-03-11T16:01:22.848Z,56.20
2023-03-11T16:03:49.751Z,57.00
2023-03-11T16:06:16.688Z,58.90
2023-03-11T16:08:44.889Z,59.30
2023-03-11T16:11:16.378Z,58.90
2023-03-11T16:13:43.255Z,56.30
2023-03-11T16:16:18.365Z,58.40
2023-03-11T16:18:45.276Z,53.70
2023-03-11T16:21:19.087Z,58.80
2023-03-11T16:23:51.932Z,56.60
2023-03-11T16:26:19.775Z,60.50
2023-03-11T16:28:46.600Z,61.10
2023-03-11T16:31:13.888Z,61.50
2023-03-11T16:33:40.749Z,62.00
2023-03-11T16:36:07.956Z,62.10
2023-03-11T16:38:49.228Z,62.50
2023-03-11T16:41:17.307Z,58.80
2023-03-11T16:43:44.900Z,62.70
2023-03-11T16:46:12.127Z,63.00
2023-03-11T16:48:39.001Z,63.20
2023-03-11T16:51:05.974Z,63.60
2023-03-11T16:53:32.940Z,63.80
2023-03-11T16:55:59.891Z,64.10
2023-03-11T16:58:26.822Z,64.10
2023-03-11T17:00:53.606Z,64.30
2023-03-11T17:03:21.794Z,64.30
2023-03-11T17:05:49.233Z,64.50
2023-03-11T17:08:18.156Z,64.60
2023-03-11T17:10:46.509Z,64.70
2023-03-11T17:13:17.036Z,64.90
2023-03-11T17:15:45.781Z,65.20
2023-03-11T17:18:13.708Z,65.30
2023-03-11T17:20:43.538Z,65.30
2023-03-11T17:23:10.722Z,65.90
2023-03-11T17:25:41.567Z,65.70
2023-03-11T17:28:08.996Z,64.70
2023-03-11T17:30:37.550Z,60.10
2023-03-11T17:33:05.051Z,66.70
2023-03-11T17:35:32.243Z,66.50
2023-03-11T17:37:59.289Z,66.50
2023-03-11T17:40:27.068Z,66.50
2023-03-11T17:42:54.121Z,66.50
2023-03-11T17:45:21.115Z,66.50
2023-03-11T17:47:47.991Z,66.40
2023-03-11T17:50:15.234Z,66.50
2023-03-11T17:52:42.150Z,66.30
2023-03-11T17:55:09.970Z,66.40
2023-03-11T17:57:45.088Z,66.40
2023-03-11T18:00:14.872Z,66.40
2023-03-11T18:02:42.167Z,66.50
2023-03-11T18:05:09.553Z,66.60
2023-03-11T18:07:41.097Z,66.50
2023-03-11T18:10:10.067Z,66.20
2023-03-11T18:12:37.472Z,66.30
2023-03-11T18:15:08.423Z,66.30
2023-03-11T18:17:36.278Z,66.00
2023-03-11T18:20:04.669Z,66.40
2023-03-11T18:22:34.021Z,66.40
2023-03-11T18:25:02.095Z,66.30
2023-03-11T18:27:29.068Z,66.30
2023-03-11T18:29:56.091Z,66.40
2023-03-11T18:32:24.694Z,66.30
2023-03-11T18:34:51.880Z,66.30
2023-03-11T18:37:19.021Z,66.40
2023-03-11T18:39:45.908Z,66.30
2023-03-11T18:42:14.214Z,66.30
2023-03-11T18:44:41.830Z,66.10
2023-03-11T18:47:08.818Z,66.00
2023-03-11T18:49:35.786Z,66.00
2023-03-11T18:52:02.727Z,65.90
2023-03-11T18:54:29.769Z,65.90
2023-03-11T18:56:56.673Z,65.90
2023-03-11T18:59:23.744Z,65.80
2023-03-11T19:01:51.083Z,65.90
2023-03-11T19:04:18.286Z,65.80
2023-03-11T19:06:45.600Z,66.30
2023-03-11T19:09:12.921Z,65.80
2023-03-11T19:11:40.002Z,65.80
2023-03-11T19:14:07.093Z,65.90
2023-03-11T19:16:36.246Z,65.90
2023-03-11T19:19:03.649Z,66.00
2023-03-11T19:21:30.553Z,66.10
2023-03-11T19:23:58.120Z,66.20
2023-03-11T19:26:41.428Z,66.30
2023-03-11T19:29:10.777Z,66.40
2023-03-11T19:31:37.769Z,66.50
2023-03-11T19:34:04.945Z,66.50
2023-03-11T19:36:32.262Z,66.60
2023-03-11T19:38:59.254Z,66.70
2023-03-11T19:41:26.459Z,66.80
2023-03-11T19:43:53.491Z,66.80
2023-03-11T19:46:22.709Z,66.90
2023-03-11T19:48:49.918Z,66.80
2023-03-11T19:51:17.666Z,67.10
2023-03-11T19:53:44.773Z,67.10
2023-03-11T19:56:11.856Z,67.10
2023-03-11T19:58:41.488Z,67.10
2023-03-11T20:01:15.992Z,67.10
2023-03-11T20:03:43.161Z,67.10
2023-03-11T20:06:10.349Z,67.00
2023-03-11T20:08:37.811Z,66.80
2023-03-11T20:11:06.002Z,66.70
2023-03-11T20:13:36.501Z,66.60
2023-03-11T20:16:10.192Z,66.40
2023-03-11T20:18:37.319Z,65.10
2023-03-11T20:21:11.361Z,66.40
2023-03-11T20:23:40.093Z,65.00
2023-03-11T20:26:16.223Z,66.30
2023-03-11T20:28:44.030Z,64.20
2023-03-11T20:31:22.992Z,66.60
2023-03-11T20:33:51.912Z,64.90
2023-03-11T20:36:26.782Z,66.80
2023-03-11T20:38:55.633Z,66.60
2023-03-11T20:41:25.151Z,67.00
2023-03-11T20:43:56.279Z,66.80
2023-03-11T20:46:23.896Z,67.10
2023-03-11T20:48:50.849Z,67.10
2023-03-11T20:51:20.545Z,67.10
2023-03-11T20:53:48.991Z,66.90
2023-03-11T20:56:20.493Z,67.00
2023-03-11T20:58:50.919Z,66.80
2023-03-11T21:01:23.852Z,67.10
2023-03-11T21:03:54.623Z,66.80
2023-03-11T21:06:37.285Z,66.80
2023-03-11T21:09:10.434Z,67.20
2023-03-11T21:11:37.583Z,67.30
2023-03-11T21:14:06.947Z,67.80
2023-03-11T21:16:34.960Z,67.80
2023-03-11T21:19:05.347Z,68.10
2023-03-11T21:21:32.552Z,68.20
2023-03-11T21:23:59.597Z,68.30
2023-03-11T21:26:26.821Z,68.40
2023-03-11T21:28:55.399Z,68.40
2023-03-11T21:31:27.075Z,68.50
2023-03-11T21:33:58.827Z,68.50
2023-03-11T21:36:25.864Z,68.70
2023-03-11T21:38:52.972Z,68.80
2023-03-11T21:41:26.678Z,68.90
2023-03-11T21:43:56.156Z,67.80
2023-03-11T21:46:28.701Z,68.90
2023-03-11T21:48:56.334Z,68.80
2023-03-11T21:51:24.103Z,69.10
2023-03-11T21:53:51.136Z,69.10
2023-03-11T21:56:19.940Z,69.30
2023-03-11T21:58:47.669Z,69.30
2023-03-11T22:01:14.715Z,69.30
2023-03-11T22:03:41.936Z,69.20
2023-03-11T22:06:11.640Z,69.20
2023-03-11T22:08:39.941Z,69.10
2023-03-11T22:11:17.373Z,69.40
2023-03-11T22:13:49.784Z,68.40
2023-03-11T22:16:18.200Z,69.50
2023-03-11T22:18:46.580Z,69.60
2023-03-11T22:21:15.648Z,69.70
2023-03-11T22:23:44.671Z,69.70
2023-03-11T22:26:11.525Z,69.70
2023-03-11T22:28:38.483Z,69.80
2023-03-11T22:31:13.214Z,69.90
2023-03-11T22:33:40.573Z,69.00
2023-03-11T22:36:09.361Z,70.00
2023-03-11T22:38:37.085Z,70.00
2023-03-11T22:41:07.645Z,70.00
2023-03-11T22:43:36.305Z,69.90
2023-03-11T22:46:04.822Z,70.10
2023-03-11T22:48:34.106Z,70.30
2023-03-11T22:51:01.982Z,70.40
2023-03-11T22:53:29.251Z,70.40
2023-03-11T22:55:56.085Z,70.50
2023-03-11T22:58:23.161Z,70.60
2023-03-11T23:00:50.070Z,70.70
2023-03-11T23:03:17.046Z,70.80
2023-03-11T23:05:45.890Z,70.90
2023-03-11T23:08:15.780Z,70.80
2023-03-11T23:10:47.174Z,70.40
2023-03-11T23:13:14.677Z,70.30
2023-03-11T23:15:44.220Z,71.10
2023-03-11T23:18:12.015Z,70.50
2023-03-11T23:20:41.885Z,70.60
2023-03-11T23:23:09.894Z,70.40
2023-03-11T23:25:38.306Z,70.70
2023-03-11T23:28:06.506Z,70.70
2023-03-11T23:30:33.658Z,70.90
2023-03-11T23:33:02.891Z,71.30
2023-03-11T23:35:31.031Z,71.50
2023-03-11T23:37:57.956Z,71.60
2023-03-11T23:40:25.436Z,71.70
2023-03-11T23:42:52.657Z,71.70
2023-03-11T23:45:19.550Z,71.90
2023-03-11T23:47:46.440Z,71.90
2023-03-11T23:50:13.410Z,71.90
2023-03-11T23:52:40.424Z,72.00
2023-03-11T23:55:08.627Z,72.00
2023-03-11T23:57:37.127Z,71.90
